Time;durP1;ratioP1;P1;durP2;ratioP2;P2;SDS_P1;SDS_P2;PMS_P1;PMS_P2;Temp;Humidity;BMP_temperature;BMP_pressure;BME280_temperature;BME280_humidity;BME280_pressure;Samples;Min_cycle;Max_cycle;Signal;HPM_P1;HPM_P2
2021/12/10 00:00:35;;;;;;;45.40;20.98;;;5.00;99.90;;;;;;5090498;28;20036;-73
2021/12/10 00:03:06;;;;;;;48.30;21.77;;;5.10;99.90;;;;;;5088943;28;20044;-73
2021/12/10 00:05:37;;;;;;;34.72;21.58;;;5.00;99.90;;;;;;5086910;28;20059;-73
2021/12/10 00:08:05;;;;;;;41.35;20.25;;;5.10;99.90;;;;;;5112588;28;20047;-73
2021/12/10 00:10:34;;;;;;;39.35;20.52;;;5.10;99.90;;;;;;5130321;28;20038;-73
2021/12/10 00:13:01;;;;;;;46.88;22.45;;;5.10;99.90;;;;;;5129772;28;20452;-73
2021/12/10 00:15:29;;;;;;;42.80;20.52;;;5.10;99.90;;;;;;5129837;28;20039;-73
2021/12/10 00:17:57;;;;;;;41.30;18.90;;;5.10;99.90;;;;;;5129860;28;20163;-73
2021/12/10 00:20:26;;;;;;;40.30;19.52;;;5.10;99.90;;;;;;5129780;28;20074;-73
2021/12/10 00:22:58;;;;;;;37.55;20.25;;;5.10;99.90;;;;;;5129300;28;20045;-73
2021/12/10 00:25:38;;;;;;;38.65;19.88;;;5.10;99.90;;;;;;5129485;28;20043;-73
2021/12/10 00:28:14;;;;;;;33.10;18.90;;;5.10;99.90;;;;;;5129775;28;20415;-73
2021/12/10 00:30:58;;;;;;;42.47;19.38;;;5.10;99.90;;;;;;5129601;28;20038;-73
2021/12/10 00:33:25;;;;;;;36.88;19.13;;;5.10;99.90;;;;;;5129231;28;20053;-73
2021/12/10 00:35:54;;;;;;;39.42;17.90;;;5.10;99.90;;;;;;5129918;28;20031;-73
2021/12/10 00:38:21;;;;;;;36.42;19.25;;;5.10;99.90;;;;;;5132751;28;20041;-73
2021/12/10 00:40:47;;;;;;;36.22;19.85;;;5.10;99.90;;;;;;5114749;27;20088;-72
2021/12/10 00:43:13;;;;;;;45.10;18.17;;;5.00;99.90;;;;;;5133153;27;20623;-72
2021/12/10 00:45:39;;;;;;;40.72;18.02;;;5.10;99.90;;;;;;5133258;27;20031;-74
2021/12/10 00:48:05;;;;;;;40.17;18.38;;;5.10;99.90;;;;;;5133538;27;20172;-74
2021/12/10 00:50:35;;;;;;;37.53;16.92;;;5.10;99.90;;;;;;5133465;27;20122;-74
2021/12/10 00:53:01;;;;;;;32.70;17.48;;;5.10;99.90;;;;;;5132734;27;20145;-72
2021/12/10 00:55:27;;;;;;;35.45;17.55;;;5.10;99.90;;;;;;5116038;27;20118;-72
2021/12/10 00:57:54;;;;;;;39.25;19.08;;;5.10;99.90;;;;;;5132728;27;20122;-72
2021/12/10 01:00:32;;;;;;;36.88;17.55;;;5.00;99.90;;;;;;5098964;27;20039;-72
2021/12/10 01:02:57;;;;;;;33.10;17.17;;;5.10;99.90;;;;;;5132528;27;20077;-72
2021/12/10 01:05:24;;;;;;;35.63;18.00;;;5.10;99.90;;;;;;5115714;27;20490;-72
2021/12/10 01:07:49;;;;;;;40.78;17.95;;;5.00;99.90;;;;;;5115778;27;20602;-72
2021/12/10 01:10:33;;;;;;;40.67;17.33;;;5.00;99.90;;;;;;5132672;27;20039;-72
2021/12/10 01:13:00;;;;;;;31.15;17.40;;;5.10;99.90;;;;;;5132300;27;20039;-72
2021/12/10 01:29:21;;;;;;;31.58;14.93;;;5.10;99.90;;;;;;5132249;27;20043;-72
2021/12/10 01:31:47;;;;;;;33.30;14.40;;;5.00;99.90;;;;;;5131907;27;20039;-73
2021/12/10 01:34:13;;;;;;;36.53;13.60;;;5.00;99.90;;;;;;5114804;27;20089;-72
2021/12/10 01:36:40;;;;;;;40.15;14.77;;;5.00;99.90;;;;;;5114953;27;20065;-73
2021/12/10 01:39:09;;;;;;;31.50;14.52;;;5.00;99.90;;;;;;5132025;27;20035;-72
2021/12/10 01:41:39;;;;;;;33.50;15.77;;;5.00;99.90;;;;;;5114839;27;20043;-72
2021/12/10 01:44:15;;;;;;;41.05;15.52;;;5.00;99.90;;;;;;5131859;27;20142;-72
2021/12/10 01:46:42;;;;;;;26.42;13.90;;;4.90;99.90;;;;;;5131912;27;20039;-72
2021/12/10 01:49:12;;;;;;;35.35;14.07;;;4.90;99.90;;;;;;5131870;27;20487;-72
2021/12/10 01:51:39;;;;;;;25.90;13.07;;;4.90;99.90;;;;;;5131619;27;20039;-72
2021/12/10 01:54:10;;;;;;;26.33;13.35;;;4.90;99.90;;;;;;5131370;27;20047;-72
2021/12/10 01:56:38;;;;;;;31.77;13.80;;;4.80;99.90;;;;;;5133268;27;20402;-72
2021/12/10 01:59:07;;;;;;;31.83;13.57;;;4.90;99.90;;;;;;5131535;27;20042;-72
2021/12/10 02:01:40;;;;;;;27.63;13.80;;;4.90;99.90;;;;;;5131927;27;20384;-72
2021/12/10 02:04:09;;;;;;;25.85;12.70;;;4.90;99.90;;;;;;5131827;27;20118;-72
2021/12/10 02:06:35;;;;;;;24.88;12.98;;;4.90;99.90;;;;;;5131537;27;20125;-72
2021/12/10 02:09:01;;;;;;;31.65;13.75;;;4.90;99.90;;;;;;5131633;27;20061;-72
2021/12/10 02:11:27;;;;;;;24.55;14.10;;;4.80;99.90;;;;;;5131954;27;20039;-72
2021/12/10 02:13:53;;;;;;;23.70;12.25;;;4.90;99.90;;;;;;5131294;27;20099;-73
2021/12/10 02:16:18;;;;;;;28.35;13.48;;;4.90;99.90;;;;;;5114338;27;20074;-72
2021/12/10 02:18:44;;;;;;;30.15;13.13;;;4.90;99.90;;;;;;5114342;27;20084;-72
2021/12/10 02:21:10;;;;;;;21.52;11.63;;;4.90;99.90;;;;;;5131443;27;20363;-72
2021/12/10 02:23:48;;;;;;;30.73;13.35;;;4.90;99.90;;;;;;5131144;27;20050;-72
2021/12/10 02:26:15;;;;;;;24.40;12.70;;;4.90;99.90;;;;;;5131499;27;20060;-72
2021/12/10 02:28:42;;;;;;;25.67;11.88;;;4.90;99.90;;;;;;5131231;27;20046;-72
2021/12/10 02:31:09;;;;;;;26.13;13.38;;;4.90;99.90;;;;;;5131235;27;20054;-72
2021/12/10 02:33:36;;;;;;;39.42;14.15;;;4.90;99.90;;;;;;5130582;27;20039;-73
2021/12/10 02:36:03;;;;;;;21.45;11.43;;;4.90;99.90;;;;;;5113822;27;20039;-72
2021/12/10 02:38:29;;;;;;;28.60;12.77;;;4.90;99.90;;;;;;5114265;27;20046;-72
2021/12/10 02:40:55;;;;;;;22.58;11.77;;;4.90;99.90;;;;;;5131205;27;20035;-72
2021/12/10 02:43:23;;;;;;;31.02;13.63;;;4.90;99.90;;;;;;5130713;27;20043;-73
2021/12/10 02:45:54;;;;;;;25.65;13.63;;;4.90;99.90;;;;;;5131698;27;20050;-72
2021/12/10 02:48:21;;;;;;;27.80;13.30;;;4.80;99.90;;;;;;5135072;27;20039;-72
2021/12/10 02:50:48;;;;;;;28.60;14.85;;;4.90;99.90;;;;;;5131349;27;20042;-72
2021/12/10 02:53:16;;;;;;;21.73;13.10;;;4.90;99.90;;;;;;5130705;27;20076;-72
2021/12/10 02:55:43;;;;;;;30.73;12.98;;;4.80;99.90;;;;;;5131038;27;20372;-72
2021/12/10 02:58:11;;;;;;;40.10;12.82;;;4.90;99.90;;;;;;5130616;27;20122;-72
2021/12/10 03:01:02;;;;;;;26.95;12.88;;;4.80;99.90;;;;;;5132019;27;20163;-72
2021/12/10 03:03:28;;;;;;;32.17;14.05;;;4.90;99.90;;;;;;5129986;27;20083;-72
2021/12/10 03:05:54;;;;;;;25.13;12.50;;;4.90;99.90;;;;;;5130461;27;20039;-72
2021/12/10 03:08:20;;;;;;;27.67;14.13;;;4.90;99.90;;;;;;5130824;27;20509;-72
2021/12/10 03:10:46;;;;;;;27.33;13.95;;;4.90;99.90;;;;;;5130517;27;20071;-72
2021/12/10 03:13:12;;;;;;;26.85;15.40;;;4.80;99.90;;;;;;5130064;27;20081;-72
2021/12/10 03:15:39;;;;;;;27.02;15.40;;;4.90;99.90;;;;;;5130394;27;20031;-72
2021/12/10 03:18:08;;;;;;;25.67;14.60;;;4.80;99.90;;;;;;5130434;27;20045;-72
2021/12/10 03:20:35;;;;;;;31.55;14.95;;;4.80;99.90;;;;;;5130301;27;20187;-72
2021/12/10 03:23:03;;;;;;;29.77;15.32;;;4.80;99.90;;;;;;5130260;27;20045;-72
2021/12/10 03:25:28;;;;;;;30.55;15.57;;;4.80;99.90;;;;;;5130215;27;20054;-72
2021/12/10 03:27:55;;;;;;;24.73;15.18;;;4.80;99.90;;;;;;5130134;27;20039;-72
2021/12/10 03:30:28;;;;;;;24.23;15.57;;;4.80;99.90;;;;;;5130212;27;20091;-72
2021/12/10 03:32:55;;;;;;;25.38;16.15;;;4.70;99.90;;;;;;5129744;27;20039;-72
2021/12/10 03:35:43;;;;;;;29.48;16.13;;;4.70;99.90;;;;;;5130304;28;20395;-73
2021/12/10 03:38:12;;;;;;;29.08;15.95;;;4.70;99.90;;;;;;5129453;28;20050;-72
2021/12/10 03:40:38;;;;;;;28.35;14.93;;;4.70;99.90;;;;;;5130472;28;20125;-73
2021/12/10 03:43:04;;;;;;;32.17;16.63;;;4.80;99.90;;;;;;5129750;28;20039;-72
2021/12/10 03:45:33;;;;;;;29.90;15.65;;;4.70;99.90;;;;;;5129988;28;20409;-72
2021/12/10 03:48:01;;;;;;;29.70;15.60;;;4.80;99.90;;;;;;5129975;28;20613;-72
2021/12/10 03:50:30;;;;;;;29.23;14.93;;;4.70;99.90;;;;;;5131271;27;20503;-73
2021/12/10 03:52:56;;;;;;;31.23;14.93;;;4.70;99.90;;;;;;5129515;28;20530;-72
2021/12/10 03:55:23;;;;;;;29.83;14.13;;;4.70;99.90;;;;;;5130048;28;20054;-73
2021/12/10 03:57:50;;;;;;;27.40;15.75;;;4.60;99.90;;;;;;5129742;28;20071;-73
2021/12/10 04:00:18;;;;;;;25.23;14.30;;;4.60;99.90;;;;;;5129905;28;20053;-73
2021/12/10 04:02:44;;;;;;;30.20;15.05;;;4.60;99.90;;;;;;5129821;28;20494;-73
2021/12/10 04:05:10;;;;;;;26.27;13.98;;;4.60;99.90;;;;;;5129679;28;20074;-72
2021/12/10 04:07:36;;;;;;;23.90;13.43;;;4.50;99.90;;;;;;5130111;28;20066;-72
2021/12/10 04:10:05;;;;;;;27.23;14.00;;;4.50;99.90;;;;;;5131453;27;20035;-72
2021/12/10 04:12:31;;;;;;;23.75;13.48;;;4.50;99.90;;;;;;5129648;28;20071;-72
2021/12/10 04:14:57;;;;;;;27.38;15.13;;;4.40;99.90;;;;;;5132309;27;20070;-72
2021/12/10 04:17:23;;;;;;;24.45;13.77;;;4.40;99.90;;;;;;5133677;27;20035;-72
2021/12/10 04:19:50;;;;;;;25.60;14.60;;;4.40;99.90;;;;;;5135014;27;20495;-72
2021/12/10 04:22:17;;;;;;;25.92;13.43;;;4.30;99.90;;;;;;5133376;27;20035;-72
2021/12/10 04:24:44;;;;;;;30.90;14.88;;;4.20;99.90;;;;;;5133705;27;20126;-72
2021/12/10 04:27:13;;;;;;;24.60;14.90;;;4.20;99.90;;;;;;5133441;27;20039;-72
2021/12/10 04:29:39;;;;;;;25.85;14.05;;;4.20;99.90;;;;;;5133455;27;20035;-72
2021/12/10 04:32:07;;;;;;;25.85;13.50;;;4.20;99.90;;;;;;5133080;27;20057;-72
2021/12/10 04:34:33;;;;;;;21.55;13.20;;;4.10;99.90;;;;;;5133065;27;20043;-72
2021/12/10 04:37:02;;;;;;;22.65;13.90;;;4.10;99.90;;;;;;5133378;27;20035;-72
2021/12/10 04:39:29;;;;;;;23.92;14.05;;;4.00;99.90;;;;;;5133182;27;20130;-72
2021/12/10 04:41:55;;;;;;;27.35;13.50;;;4.00;99.90;;;;;;5133211;27;20463;-72
2021/12/10 04:44:21;;;;;;;23.67;14.48;;;4.00;99.90;;;;;;5115842;27;20039;-72
2021/12/10 04:46:47;;;;;;;22.45;12.85;;;3.90;99.90;;;;;;5133253;27;20084;-73
2021/12/10 04:49:14;;;;;;;23.83;13.75;;;3.90;99.90;;;;;;5132943;27;20077;-73
2021/12/10 04:51:49;;;;;;;25.08;14.50;;;3.90;99.90;;;;;;5132835;27;20079;-73
2021/12/10 04:54:18;;;;;;;23.10;14.90;;;3.90;99.90;;;;;;5133029;27;20064;-73
2021/12/10 04:56:44;;;;;;;20.52;13.35;;;3.80;99.90;;;;;;5134605;27;20038;-73
2021/12/10 04:59:14;;;;;;;24.10;15.75;;;3.80;99.90;;;;;;5134025;27;20122;-73
2021/12/10 05:01:40;;;;;;;25.92;14.20;;;3.80;99.90;;;;;;5132718;27;20075;-73
2021/12/10 05:04:07;;;;;;;25.98;14.50;;;3.70;99.90;;;;;;5132671;27;20458;-74
2021/12/10 05:06:34;;;;;;;26.88;14.63;;;3.70;99.90;;;;;;5115471;27;20509;-73
2021/12/10 05:08:59;;;;;;;26.10;15.52;;;3.70;99.90;;;;;;5132858;27;20046;-73
2021/12/10 05:11:25;;;;;;;26.10;13.38;;;3.70;99.90;;;;;;5132667;27;20046;-74
2021/12/10 05:13:51;;;;;;;22.05;13.63;;;3.70;99.90;;;;;;5115128;27;20118;-74
2021/12/10 05:16:17;;;;;;;22.25;13.75;;;3.60;99.90;;;;;;5132862;27;20076;-74
2021/12/10 05:18:48;;;;;;;26.63;13.57;;;3.60;99.90;;;;;;5132583;27;20051;-74
2021/12/10 05:21:15;;;;;;;20.77;12.52;;;3.60;99.90;;;;;;5132585;27;20051;-73
2021/12/10 05:23:41;;;;;;;21.30;12.10;;;3.50;99.90;;;;;;5133880;27;20170;-74
2021/12/10 05:26:08;;;;;;;22.75;12.70;;;3.40;99.90;;;;;;5132151;27;20117;-73
2021/12/10 05:28:34;;;;;;;20.50;12.00;;;3.50;99.90;;;;;;5132612;27;20070;-74
2021/12/10 05:31:00;;;;;;;21.75;12.75;;;3.40;99.90;;;;;;5132356;27;20047;-73
2021/12/10 05:33:28;;;;;;;22.92;13.32;;;3.50;99.90;;;;;;5131576;27;20491;-74
2021/12/10 05:35:54;;;;;;;22.63;12.45;;;3.50;99.90;;;;;;5132000;27;20043;-73
2021/12/10 05:38:21;;;;;;;22.33;10.98;;;3.40;99.90;;;;;;5115363;27;20347;-74
2021/12/10 05:40:50;;;;;;;21.60;11.48;;;3.40;99.90;;;;;;5114995;27;20046;-74
2021/12/10 05:43:17;;;;;;;20.08;11.35;;;3.30;99.90;;;;;;5133183;27;20039;-73
2021/12/10 05:45:44;;;;;;;18.17;11.35;;;3.40;99.90;;;;;;5132337;27;20059;-73
2021/12/10 05:48:09;;;;;;;20.52;11.40;;;3.30;99.90;;;;;;5131719;27;20138;-73
2021/12/10 05:50:36;;;;;;;19.95;11.82;;;3.30;99.90;;;;;;5132151;27;20078;-74
2021/12/10 05:53:03;;;;;;;16.05;10.88;;;3.20;99.90;;;;;;5131786;27;20122;-74
2021/12/10 05:55:29;;;;;;;19.02;11.15;;;3.20;99.90;;;;;;5114651;27;20122;-74
2021/12/10 05:57:55;;;;;;;20.33;11.80;;;3.30;99.90;;;;;;5132082;27;20521;-74
2021/12/10 06:00:26;;;;;;;17.48;11.35;;;3.20;99.90;;;;;;5114738;27;20043;-73
2021/12/10 06:02:52;;;;;;;20.02;10.75;;;3.30;99.90;;;;;;5114728;27;20126;-74
2021/12/10 06:05:17;;;;;;;22.88;10.27;;;3.20;99.90;;;;;;5131834;27;20686;-73
2021/12/10 06:07:43;;;;;;;16.45;10.65;;;3.20;99.90;;;;;;5131911;27;20418;-74
2021/12/10 06:10:12;;;;;;;18.92;11.07;;;3.20;99.90;;;;;;5131708;27;20035;-74
2021/12/10 06:12:39;;;;;;;17.80;10.38;;;3.20;99.90;;;;;;5131318;27;20136;-74
2021/12/10 06:15:06;;;;;;;16.77;9.73;;;3.20;99.90;;;;;;5131875;27;20496;-74
2021/12/10 06:17:32;;;;;;;16.75;10.23;;;3.10;99.90;;;;;;5131830;27;20055;-73
2021/12/10 06:19:59;;;;;;;17.55;10.10;;;3.10;99.90;;;;;;5131586;27;20050;-74
2021/12/10 06:22:26;;;;;;;18.25;10.02;;;3.10;99.90;;;;;;5131126;27;20117;-73
2021/12/10 06:24:51;;;;;;;14.20;9.65;;;3.00;99.90;;;;;;5131464;27;20043;-74
2021/12/10 06:27:17;;;;;;;20.02;12.63;;;3.00;99.90;;;;;;5132706;27;20111;-74
2021/12/10 06:29:43;;;;;;;14.07;10.25;;;3.00;99.90;;;;;;5131346;27;20466;-74
2021/12/10 06:32:10;;;;;;;14.45;9.98;;;3.00;99.90;;;;;;5132058;27;20035;-74
2021/12/10 06:34:35;;;;;;;19.83;11.23;;;3.00;99.90;;;;;;5114178;27;20039;-74
2021/12/10 06:37:01;;;;;;;16.58;10.05;;;2.90;99.90;;;;;;5113513;27;20027;-74
2021/12/10 06:39:27;;;;;;;18.23;10.00;;;3.00;99.90;;;;;;5130700;27;20039;-73
2021/12/10 06:41:54;;;;;;;17.90;10.68;;;2.90;99.90;;;;;;5113650;27;20213;-74
2021/12/10 06:44:21;;;;;;;14.75;10.15;;;2.90;99.90;;;;;;5131031;27;20106;-74
2021/12/10 06:46:47;;;;;;;16.52;10.18;;;2.90;99.90;;;;;;5130932;27;20039;-73
2021/12/10 06:49:14;;;;;;;22.33;10.40;;;2.90;99.90;;;;;;5130947;27;20586;-73
2021/12/10 06:51:41;;;;;;;16.80;10.02;;;2.80;99.90;;;;;;5132014;27;20050;-73
2021/12/10 06:54:06;;;;;;;17.13;9.93;;;2.80;99.90;;;;;;5130858;27;20053;-74
2021/12/10 06:56:35;;;;;;;16.38;9.30;;;2.80;99.90;;;;;;5130680;27;20039;-73
2021/12/10 06:59:01;;;;;;;14.63;9.50;;;2.80;99.90;;;;;;5131062;27;20137;-73
2021/12/10 07:01:30;;;;;;;17.10;9.68;;;2.80;99.90;;;;;;5130924;27;20031;-73
2021/12/10 07:03:58;;;;;;;15.90;9.93;;;2.80;99.90;;;;;;5130193;27;20088;-73
2021/12/10 07:06:25;;;;;;;19.02;9.52;;;2.80;99.90;;;;;;5132098;27;20091;-75
2021/12/10 07:08:51;;;;;;;13.93;9.60;;;2.80;99.90;;;;;;5134245;27;20108;-73
2021/12/10 07:11:19;;;;;;;15.50;8.77;;;2.70;99.90;;;;;;5130436;27;20047;-73
2021/12/10 07:13:50;;;;;;;15.55;9.23;;;2.70;99.90;;;;;;5112924;27;20054;-74
2021/12/10 07:16:18;;;;;;;12.77;8.90;;;2.70;99.90;;;;;;5113151;27;20187;-73
2021/12/10 07:18:44;;;;;;;12.82;8.15;;;2.70;99.90;;;;;;5129060;27;20547;-73
2021/12/10 07:21:11;;;;;;;15.23;8.60;;;2.70;99.90;;;;;;5127345;27;20037;-73
2021/12/10 07:23:37;;;;;;;16.30;9.07;;;2.70;99.90;;;;;;5127723;27;20074;-73
2021/12/10 07:26:04;;;;;;;15.00;9.32;;;2.70;99.90;;;;;;5129639;27;20066;-73
2021/12/10 07:28:30;;;;;;;13.88;8.07;;;2.70;99.90;;;;;;5129673;27;20039;-73
2021/12/10 07:30:56;;;;;;;11.80;8.18;;;2.70;99.90;;;;;;5112926;27;20042;-73
2021/12/10 07:33:22;;;;;;;14.18;8.63;;;2.60;99.90;;;;;;5111484;28;20041;-71
2021/12/10 07:35:49;;;;;;;14.88;9.18;;;2.60;99.90;;;;;;5129563;27;20634;-73
2021/12/10 07:38:15;;;;;;;12.35;7.72;;;2.60;99.90;;;;;;5130364;28;20083;-73
2021/12/10 07:40:41;;;;;;;15.55;9.27;;;2.60;99.90;;;;;;5130196;28;20039;-73
2021/12/10 07:43:07;;;;;;;11.50;8.27;;;2.70;99.90;;;;;;5129895;28;20382;-76
2021/12/10 07:45:34;;;;;;;13.50;8.45;;;2.60;99.90;;;;;;5130317;28;20043;-73
2021/12/10 07:48:06;;;;;;;18.17;8.40;;;2.60;99.90;;;;;;5113183;28;20500;-73
2021/12/10 07:50:36;;;;;;;10.65;8.25;;;2.60;99.90;;;;;;5134063;27;20043;-73
2021/12/10 07:53:02;;;;;;;13.43;8.10;;;2.70;99.90;;;;;;5133833;27;20122;-73
2021/12/10 07:55:30;;;;;;;14.00;8.30;;;2.70;99.90;;;;;;5133947;27;20035;-73
2021/12/10 07:57:57;;;;;;;13.90;8.45;;;2.70;99.90;;;;;;5134355;27;20473;-73
2021/12/10 08:00:25;;;;;;;14.18;8.38;;;2.70;99.90;;;;;;5116661;27;20044;-74
2021/12/10 08:02:51;;;;;;;16.15;8.45;;;2.70;99.90;;;;;;5133990;27;20126;-77
2021/12/10 08:05:18;;;;;;;15.98;8.80;;;2.90;99.90;;;;;;5133955;27;20075;-76
2021/12/10 08:07:44;;;;;;;14.32;8.50;;;2.80;99.90;;;;;;5117261;27;20045;-76
2021/12/10 08:10:12;;;;;;;12.10;8.40;;;2.70;99.90;;;;;;5117134;27;20084;-76
2021/12/10 08:12:38;;;;;;;14.57;7.93;;;2.70;99.90;;;;;;5133814;27;20125;-76
2021/12/10 08:15:06;;;;;;;14.93;7.75;;;2.60;99.90;;;;;;5116797;27;20135;-77
2021/12/10 08:17:32;;;;;;;12.38;8.07;;;2.60;99.90;;;;;;5134144;27;20046;-76
2021/12/10 08:19:59;;;;;;;15.57;7.70;;;2.60;99.90;;;;;;5099606;28;20115;-76
2021/12/10 08:22:24;;;;;;;11.55;7.82;;;2.60;99.90;;;;;;5092297;28;20058;-76
2021/12/10 08:24:50;;;;;;;16.77;8.32;;;2.70;99.90;;;;;;5076130;28;20460;-77
2021/12/10 08:27:16;;;;;;;16.65;9.18;;;2.60;99.90;;;;;;5092984;28;20040;-76
2021/12/10 08:29:44;;;;;;;10.75;7.53;;;2.70;99.90;;;;;;5093036;28;20113;-76
2021/12/10 08:32:14;;;;;;;18.45;8.57;;;2.70;99.90;;;;;;5092606;28;20166;-74
2021/12/10 08:34:40;;;;;;;15.60;8.30;;;2.70;99.90;;;;;;5092584;28;20052;-74
2021/12/10 08:37:06;;;;;;;13.70;7.55;;;2.80;99.90;;;;;;5092467;28;20032;-74
2021/12/10 08:39:32;;;;;;;14.57;8.52;;;2.80;99.90;;;;;;5092374;28;20108;-74
2021/12/10 08:41:58;;;;;;;11.63;7.72;;;2.80;99.90;;;;;;5092345;28;20499;-74
2021/12/10 08:44:26;;;;;;;21.42;8.85;;;2.80;99.90;;;;;;5094083;28;20040;-76
2021/12/10 08:46:52;;;;;;;19.27;8.57;;;2.90;99.90;;;;;;5092484;28;20489;-73
2021/12/10 08:49:18;;;;;;;13.27;8.43;;;3.10;99.90;;;;;;5094440;28;20043;-73
2021/12/10 08:51:48;;;;;;;14.38;7.40;;;3.00;99.90;;;;;;5100808;28;20032;-74
2021/12/10 08:54:17;;;;;;;15.38;7.70;;;3.00;99.90;;;;;;5102145;28;20089;-75
2021/12/10 08:56:45;;;;;;;14.05;7.80;;;3.00;99.90;;;;;;5102938;28;20062;-74
2021/12/10 08:59:13;;;;;;;12.60;7.75;;;3.00;99.90;;;;;;5110311;28;20089;-74
2021/12/10 09:01:42;;;;;;;10.75;6.88;;;3.00;99.90;;;;;;5111801;28;20372;-74
2021/12/10 09:04:09;;;;;;;14.75;6.90;;;3.00;99.90;;;;;;5112708;28;20048;-74
2021/12/10 09:06:38;;;;;;;15.98;7.45;;;3.00;99.90;;;;;;5112192;28;20123;-74
2021/12/10 09:09:07;;;;;;;13.77;7.85;;;3.00;99.90;;;;;;5095313;28;20071;-74
2021/12/10 09:11:33;;;;;;;12.32;7.50;;;3.00;99.90;;;;;;5112040;28;20103;-75
2021/12/10 09:14:00;;;;;;;11.48;7.32;;;3.00;99.90;;;;;;5111776;28;20127;-73
2021/12/10 09:16:29;;;;;;;13.85;7.47;;;3.10;99.90;;;;;;5114651;28;20036;-73
2021/12/10 09:19:01;;;;;;;16.20;7.32;;;3.20;99.90;;;;;;5115310;28;20123;-74
2021/12/10 09:21:28;;;;;;;12.63;7.72;;;3.20;99.90;;;;;;5111778;28;20043;-77
2021/12/10 09:24:00;;;;;;;17.80;7.30;;;3.40;99.90;;;;;;5111639;28;20039;-77
2021/12/10 09:26:27;;;;;;;15.77;7.43;;;3.30;99.90;;;;;;5112065;28;20079;-77
2021/12/10 09:28:53;;;;;;;12.30;6.75;;;3.30;99.90;;;;;;5090278;28;20039;-76
2021/12/10 09:31:24;;;;;;;12.65;7.30;;;3.20;99.90;;;;;;5074911;28;20400;-76
2021/12/10 09:33:54;;;;;;;13.52;7.90;;;3.30;99.90;;;;;;5091373;28;20074;-73
2021/12/10 09:36:20;;;;;;;13.38;7.50;;;3.50;99.90;;;;;;5093076;28;20032;-74
2021/12/10 09:38:46;;;;;;;12.00;7.07;;;3.40;99.90;;;;;;5093011;28;20036;-74
2021/12/10 09:41:12;;;;;;;15.52;8.13;;;3.50;99.90;;;;;;5092954;28;20464;-73
2021/12/10 09:43:40;;;;;;;11.63;7.22;;;3.60;99.90;;;;;;5074441;28;20472;-74
2021/12/10 09:46:09;;;;;;;18.77;7.18;;;3.60;99.90;;;;;;5091335;28;20043;-74
2021/12/10 09:48:34;;;;;;;12.27;6.97;;;3.60;99.90;;;;;;5091254;28;20168;-74
2021/12/10 09:51:11;;;;;;;11.98;7.03;;;3.60;99.90;;;;;;5092893;28;20119;-73
2021/12/10 09:53:39;;;;;;;16.63;8.07;;;3.60;99.90;;;;;;5092203;28;20173;-74
2021/12/10 09:56:06;;;;;;;12.55;7.38;;;3.70;99.90;;;;;;5092539;28;20070;-74
2021/12/10 09:58:32;;;;;;;15.65;6.45;;;3.70;99.90;;;;;;5091332;28;20348;-74
2021/12/10 10:01:05;;;;;;;16.95;7.10;;;3.70;99.90;;;;;;5091061;28;20503;-74
2021/12/10 10:03:35;;;;;;;13.88;6.85;;;3.80;99.90;;;;;;5091248;28;20353;-74
2021/12/10 10:06:01;;;;;;;12.07;6.10;;;3.80;99.90;;;;;;5092441;28;20512;-74
2021/12/10 10:08:27;;;;;;;12.88;6.65;;;3.90;99.90;;;;;;5092402;28;20181;-74
2021/12/10 10:10:56;;;;;;;10.82;6.93;;;3.90;99.90;;;;;;5090793;28;20044;-74
2021/12/10 10:13:27;;;;;;;12.98;5.95;;;3.90;99.90;;;;;;5089437;28;20036;-73
2021/12/10 10:15:56;;;;;;;11.40;6.13;;;3.90;99.90;;;;;;5090603;28;20043;-74
2021/12/10 10:18:22;;;;;;;12.25;6.40;;;3.90;99.90;;;;;;5090973;28;20036;-74
2021/12/10 10:20:54;;;;;;;12.48;6.18;;;4.00;99.90;;;;;;5090765;28;20078;-74
2021/12/10 10:23:21;;;;;;;8.88;6.18;;;4.00;99.90;;;;;;5091843;28;20127;-74
2021/12/10 10:25:49;;;;;;;8.88;5.82;;;4.00;99.90;;;;;;5091847;28;20127;-74
2021/12/10 10:28:15;;;;;;;12.63;7.25;;;4.00;99.90;;;;;;5090296;28;20066;-74
2021/12/10 10:30:53;;;;;;;9.98;6.20;;;4.10;99.90;;;;;;5090496;28;20115;-74
2021/12/10 10:33:20;;;;;;;12.30;6.47;;;4.20;99.90;;;;;;5089974;28;20040;-74
2021/12/10 10:35:50;;;;;;;11.98;5.38;;;4.10;99.90;;;;;;5090228;28;20032;-75
2021/12/10 10:38:17;;;;;;;7.22;5.15;;;4.20;99.90;;;;;;5090245;28;20071;-74
2021/12/10 10:40:52;;;;;;;9.60;5.35;;;4.20;99.90;;;;;;5090122;28;20113;-74
2021/12/10 10:43:18;;;;;;;13.85;5.80;;;4.20;99.90;;;;;;5089900;28;20059;-74
2021/12/10 10:45:45;;;;;;;11.05;5.90;;;4.20;99.90;;;;;;5091328;28;20040;-75
2021/12/10 10:48:13;;;;;;;9.07;5.25;;;4.30;99.90;;;;;;5090487;28;20040;-74
2021/12/10 10:51:07;;;;;;;11.55;5.85;;;4.40;99.90;;;;;;5090853;28;20354;-73
2021/12/10 10:53:53;;;;;;;10.60;5.40;;;4.40;99.90;;;;;;5072797;28;20123;-73
2021/12/10 10:56:25;;;;;;;8.45;5.32;;;4.40;99.90;;;;;;5073169;28;20036;-74
2021/12/10 10:58:56;;;;;;;7.72;5.25;;;4.40;99.90;;;;;;5073242;28;20436;-73
2021/12/10 11:01:31;;;;;;;14.18;5.82;;;4.40;99.90;;;;;;5089897;28;20036;-75
2021/12/10 11:04:03;;;;;;;9.68;5.82;;;5.70;99.90;;;;;;5072835;28;20036;-75
2021/12/10 11:06:33;;;;;;;10.55;4.90;;;5.60;99.90;;;;;;5089962;28;20118;-77
2021/12/10 11:09:21;;;;;;;9.60;5.15;;;5.40;99.90;;;;;;5089859;28;20094;-76
2021/12/10 11:11:51;;;;;;;7.18;4.22;;;5.10;99.90;;;;;;5090886;28;20400;-76
2021/12/10 11:14:22;;;;;;;6.20;4.80;;;5.10;99.90;;;;;;5089917;28;20071;-76
2021/12/10 11:16:52;;;;;;;10.05;4.20;;;5.00;99.90;;;;;;5090268;28;20078;-77
2021/12/10 11:19:21;;;;;;;9.48;4.60;;;5.00;99.90;;;;;;5073365;28;20076;-76
2021/12/10 11:21:57;;;;;;;8.35;5.15;;;4.90;99.90;;;;;;5089608;28;20500;-77
2021/12/10 11:24:44;;;;;;;8.95;4.72;;;4.90;99.90;;;;;;5089838;28;20154;-78
2021/12/10 11:27:28;;;;;;;6.93;4.30;;;4.80;99.90;;;;;;5093548;28;20073;-76
2021/12/10 11:30:03;;;;;;;8.65;4.50;;;4.90;99.90;;;;;;5090081;28;20093;-76
2021/12/10 11:32:43;;;;;;;8.10;4.47;;;4.90;99.90;;;;;;5072663;28;20044;-75
2021/12/10 11:35:16;;;;;;;11.18;4.80;;;5.00;99.90;;;;;;5089792;28;20044;-74
2021/12/10 11:37:50;;;;;;;8.63;4.40;;;5.10;99.90;;;;;;5091272;28;20047;-76
2021/12/10 11:40:27;;;;;;;8.75;5.10;;;5.10;99.90;;;;;;5089877;28;20036;-74
2021/12/10 11:43:02;;;;;;;11.98;4.40;;;5.00;99.90;;;;;;5089735;28;20051;-75
2021/12/10 11:45:52;;;;;;;8.05;4.22;;;5.00;99.90;;;;;;5073154;28;20040;-74
2021/12/10 11:48:26;;;;;;;7.18;4.10;;;5.10;99.90;;;;;;5073067;28;20129;-74
2021/12/10 11:51:07;;;;;;;5.90;4.10;;;5.20;99.90;;;;;;5090312;28;20062;-75
2021/12/10 11:53:44;;;;;;;8.00;3.83;;;5.20;99.90;;;;;;5089835;28;20056;-75
2021/12/10 11:56:12;;;;;;;10.10;3.95;;;5.20;99.90;;;;;;5098629;28;20177;-75
2021/12/10 11:58:38;;;;;;;7.93;4.10;;;5.20;99.90;;;;;;5109656;28;20039;-75
2021/12/10 12:01:05;;;;;;;8.73;3.75;;;5.20;99.90;;;;;;5092613;28;20062;-74
2021/12/10 12:03:33;;;;;;;12.77;4.63;;;5.30;99.90;;;;;;5092433;28;20044;-75
2021/12/10 12:05:59;;;;;;;8.70;3.55;;;5.20;99.90;;;;;;5110436;28;20376;-74
2021/12/10 12:08:25;;;;;;;9.98;4.05;;;5.20;99.90;;;;;;5109632;28;20032;-74
2021/12/10 12:10:55;;;;;;;12.05;3.90;;;5.30;99.90;;;;;;5109321;28;20089;-74
2021/12/10 12:15:56;;;;;;;11.77;5.25;;;5.30;99.90;;;;;;5109686;28;20047;-74
2021/12/10 12:18:35;;;;;;;7.88;3.88;;;5.30;99.90;;;;;;5109488;28;20032;-74
2021/12/10 12:27:10;;;;;;;13.05;4.13;;;5.30;99.90;;;;;;5109462;28;20047;-76
2021/12/10 12:29:36;;;;;;;5.20;3.60;;;5.30;99.90;;;;;;5109512;28;20040;-76
2021/12/10 12:32:20;;;;;;;7.80;3.67;;;5.30;99.90;;;;;;5109411;28;20493;-76
2021/12/10 12:34:46;;;;;;;9.05;3.72;;;5.30;99.90;;;;;;5109587;28;20495;-76
2021/12/10 12:37:14;;;;;;;10.02;3.95;;;5.30;99.90;;;;;;5095276;28;20100;-76
2021/12/10 12:39:43;;;;;;;10.68;3.90;;;5.30;99.90;;;;;;5113211;28;20096;-75
2021/12/10 12:42:35;;;;;;;6.20;3.47;;;5.30;99.90;;;;;;5113062;28;20118;-76
2021/12/10 12:45:06;;;;;;;8.00;3.93;;;5.50;99.90;;;;;;5096052;28;20039;-75
2021/12/10 12:47:40;;;;;;;5.95;3.70;;;5.40;99.90;;;;;;5113178;28;20031;-75
2021/12/10 12:50:08;;;;;;;6.85;3.70;;;5.40;99.90;;;;;;5112769;28;20073;-76
2021/12/10 12:52:51;;;;;;;6.28;3.97;;;5.30;99.90;;;;;;5112546;28;20054;-76
2021/12/10 12:55:29;;;;;;;8.75;4.13;;;5.30;99.90;;;;;;5112606;28;20084;-75
2021/12/10 12:58:07;;;;;;;5.05;3.50;;;5.30;99.90;;;;;;5112595;28;20108;-75
2021/12/10 13:00:57;;;;;;;6.63;3.30;;;5.30;99.90;;;;;;5095415;28;20476;-76
2021/12/10 13:03:34;;;;;;;10.13;3.70;;;5.30;99.90;;;;;;5112316;28;20220;-76
2021/12/10 13:06:23;;;;;;;8.57;3.95;;;5.30;99.90;;;;;;5113750;28;20075;-75
2021/12/10 13:09:08;;;;;;;7.43;3.58;;;5.30;99.90;;;;;;5113155;28;20467;-76
2021/12/10 13:11:49;;;;;;;6.45;3.92;;;5.30;99.90;;;;;;5112351;28;20040;-76
2021/12/10 13:14:19;;;;;;;7.50;3.72;;;5.20;99.90;;;;;;5112441;28;20039;-75